sensor_id;sensor_type;location;lat;lon;timestamp;temperature;humidity
32322;DHT22;61553;48.994;8.940;2024-03-02T00:02:12;5.20;99.90
32322;DHT22;61553;48.994;8.940;2024-03-02T00:04:38;5.10;99.90
32322;DHT22;61553;48.994;8.940;2024-03-02T00:07:04;5.10;99.90
32322;DHT22;61553;48.994;8.940;2024-03-02T00:09:29;5.10;99.90
32322;DHT22;61553;48.994;8.940;2024-03-02T00:11:55;5.10;99.90
32322;DHT22;61553;48.994;8.940;2024-03-02T00:14:22;5.10;99.90
32322;DHT22;61553;48.994;8.940;2024-03-02T00:16:50;5.00;99.90
32322;DHT22;61553;48.994;8.940;2024-03-02T00:19:16;5.00;99.90
32322;DHT22;61553;48.994;8.940;2024-03-02T00:21:42;4.90;99.90
32322;DHT22;61553;48.994;8.940;2024-03-02T00:26:46;5.00;99.90
32322;DHT22;61553;48.994;8.940;2024-03-02T00:29:15;5.00;99.90
32322;DHT22;61553;48.994;8.940;2024-03-02T00:31:41;5.00;99.90
32322;DHT22;61553;48.994;8.940;2024-03-02T00:34:07;5.00;99.90
32322;DHT22;61553;48.994;8.940;2024-03-02T00:36:33;4.90;99.90
32322;DHT22;61553;48.994;8.940;2024-03-02T00:38:59;4.90;99.90
32322;DHT22;61553;48.994;8.940;2024-03-02T00:41:30;4.90;99.90
32322;DHT22;61553;48.994;8.940;2024-03-02T00:46:33;4.90;99.90
32322;DHT22;61553;48.994;8.940;2024-03-02T00:49:00;4.80;99.90
32322;DHT22;61553;48.994;8.940;2024-03-02T00:51:29;4.80;99.90
32322;DHT22;61553;48.994;8.940;2024-03-02T00:53:57;4.70;99.90
32322;DHT22;61553;48.994;8.940;2024-03-02T00:56:24;4.80;99.90
32322;DHT22;61553;48.994;8.940;2024-03-02T00:58:50;4.70;99.90
32322;DHT22;61553;48.994;8.940;2024-03-02T01:01:16;4.70;99.90
32322;DHT22;61553;48.994;8.940;2024-03-02T01:03:42;4.70;99.90
32322;DHT22;61553;48.994;8.940;2024-03-02T01:06:08;4.70;99.90
32322;DHT22;61553;48.994;8.940;2024-03-02T01:08:35;4.70;99.90
32322;DHT22;61553;48.994;8.940;2024-03-02T01:11:01;4.80;99.90
32322;DHT22;61553;48.994;8.940;2024-03-02T01:13:27;4.80;99.90
32322;DHT22;61553;48.994;8.940;2024-03-02T01:15:53;4.80;99.90
32322;DHT22;61553;48.994;8.940;2024-03-02T01:18:19;4.70;99.90
32322;DHT22;61553;48.994;8.940;2024-03-02T01:20:44;4.70;99.90
32322;DHT22;61553;48.994;8.940;2024-03-02T01:23:11;4.60;99.90
32322;DHT22;61553;48.994;8.940;2024-03-02T01:25:36;4.50;99.90
32322;DHT22;61553;48.994;8.940;2024-03-02T01:28:03;4.40;99.90
32322;DHT22;61553;48.994;8.940;2024-03-02T01:30:29;4.40;99.90
32322;DHT22;61553;48.994;8.940;2024-03-02T01:32:54;4.40;99.90
32322;DHT22;61553;48.994;8.940;2024-03-02T01:35:20;4.40;99.90
32322;DHT22;61553;48.994;8.940;2024-03-02T01:37:46;4.30;99.90
32322;DHT22;61553;48.994;8.940;2024-03-02T01:40:11;4.40;99.90
32322;DHT22;61553;48.994;8.940;2024-03-02T01:42:38;4.40;99.90
32322;DHT22;61553;48.994;8.940;2024-03-02T01:45:10;4.40;99.90
32322;DHT22;61553;48.994;8.940;2024-03-02T01:47:36;4.20;99.90
32322;DHT22;61553;48.994;8.940;2024-03-02T01:50:01;4.00;99.90
32322;DHT22;61553;48.994;8.940;2024-03-02T01:52:27;4.00;99.90
32322;DHT22;61553;48.994;8.940;2024-03-02T01:54:53;3.90;99.90
32322;DHT22;61553;48.994;8.940;2024-03-02T01:57:19;3.90;99.90
32322;DHT22;61553;48.994;8.940;2024-03-02T01:59:45;3.90;99.90
32322;DHT22;61553;48.994;8.940;2024-03-02T02:02:13;3.80;99.90
32322;DHT22;61553;48.994;8.940;2024-03-02T02:04:39;3.80;99.90
32322;DHT22;61553;48.994;8.940;2024-03-02T02:07:05;3.80;99.90
32322;DHT22;61553;48.994;8.940;2024-03-02T02:09:32;3.80;99.90
32322;DHT22;61553;48.994;8.940;2024-03-02T02:11:57;3.70;99.90
32322;DHT22;61553;48.994;8.940;2024-03-02T02:14:23;3.60;99.90
32322;DHT22;61553;48.994;8.940;2024-03-02T02:16:49;3.60;99.90
32322;DHT22;61553;48.994;8.940;2024-03-02T02:19:15;3.60;99.90
32322;DHT22;61553;48.994;8.940;2024-03-02T02:21:43;3.80;99.90
32322;DHT22;61553;48.994;8.940;2024-03-02T02:24:09;3.60;99.90
32322;DHT22;61553;48.994;8.940;2024-03-02T02:26:35;3.50;99.90
32322;DHT22;61553;48.994;8.940;2024-03-02T02:29:00;3.50;99.90
32322;DHT22;61553;48.994;8.940;2024-03-02T02:31:26;3.60;99.90
32322;DHT22;61553;48.994;8.940;2024-03-02T02:33:52;3.40;99.90
32322;DHT22;61553;48.994;8.940;2024-03-02T02:36:17;3.40;99.90
32322;DHT22;61553;48.994;8.940;2024-03-02T02:38:45;3.40;99.90
32322;DHT22;61553;48.994;8.940;2024-03-02T02:41:12;3.30;99.90
32322;DHT22;61553;48.994;8.940;2024-03-02T02:43:38;3.30;99.90
32322;DHT22;61553;48.994;8.940;2024-03-02T02:46:05;3.40;99.90
32322;DHT22;61553;48.994;8.940;2024-03-02T02:48:30;3.30;99.90
32322;DHT22;61553;48.994;8.940;2024-03-02T02:50:56;3.40;99.90
32322;DHT22;61553;48.994;8.940;2024-03-02T02:53:22;3.40;99.90
32322;DHT22;61553;48.994;8.940;2024-03-02T02:55:47;3.30;99.90
32322;DHT22;61553;48.994;8.940;2024-03-02T02:58:13;3.30;99.90
32322;DHT22;61553;48.994;8.940;2024-03-02T03:00:40;3.20;99.90
32322;DHT22;61553;48.994;8.940;2024-03-02T03:03:06;3.30;99.90
32322;DHT22;61553;48.994;8.940;2024-03-02T03:05:31;3.30;99.90
32322;DHT22;61553;48.994;8.940;2024-03-02T03:07:57;3.10;99.90
32322;DHT22;61553;48.994;8.940;2024-03-02T03:10:22;3.20;99.90
32322;DHT22;61553;48.994;8.940;2024-03-02T03:12:51;3.20;99.90
32322;DHT22;61553;48.994;8.940;2024-03-02T03:15:17;3.10;99.90
32322;DHT22;61553;48.994;8.940;2024-03-02T03:17:42;3.10;99.90
32322;DHT22;61553;48.994;8.940;2024-03-02T03:20:09;3.10;99.90
32322;DHT22;61553;48.994;8.940;2024-03-02T03:22:40;3.10;99.90
32322;DHT22;61553;48.994;8.940;2024-03-02T03:25:06;3.10;99.90
32322;DHT22;61553;48.994;8.940;2024-03-02T03:27:35;3.10;99.90
32322;DHT22;61553;48.994;8.940;2024-03-02T03:30:01;3.10;99.90
32322;DHT22;61553;48.994;8.940;2024-03-02T03:32:27;3.10;99.90
32322;DHT22;61553;48.994;8.940;2024-03-02T03:34:53;3.10;99.90
32322;DHT22;61553;48.994;8.940;2024-03-02T03:37:19;3.00;99.90
32322;DHT22;61553;48.994;8.940;2024-03-02T03:39:45;3.00;99.90
32322;DHT22;61553;48.994;8.940;2024-03-02T03:42:11;3.10;99.90
32322;DHT22;61553;48.994;8.940;2024-03-02T03:44:36;2.60;99.90
32322;DHT22;61553;48.994;8.940;2024-03-02T03:47:02;2.90;99.90
32322;DHT22;61553;48.994;8.940;2024-03-02T03:49:28;3.00;99.90
32322;DHT22;61553;48.994;8.940;2024-03-02T03:51:53;3.00;99.90
32322;DHT22;61553;48.994;8.940;2024-03-02T03:54:19;3.00;99.90
32322;DHT22;61553;48.994;8.940;2024-03-02T03:56:45;3.00;99.90
32322;DHT22;61553;48.994;8.940;2024-03-02T03:59:10;3.00;99.90
32322;DHT22;61553;48.994;8.940;2024-03-02T04:01:37;2.90;99.90
32322;DHT22;61553;48.994;8.940;2024-03-02T04:04:02;2.90;99.90
32322;DHT22;61553;48.994;8.940;2024-03-02T04:06:29;2.90;99.90
32322;DHT22;61553;48.994;8.940;2024-03-02T04:08:54;2.90;99.90
32322;DHT22;61553;48.994;8.940;2024-03-02T04:11:20;2.90;99.90
32322;DHT22;61553;48.994;8.940;2024-03-02T04:13:45;3.00;99.90
32322;DHT22;61553;48.994;8.940;2024-03-02T04:16:11;3.10;99.90
32322;DHT22;61553;48.994;8.940;2024-03-02T04:18:37;3.10;99.90
32322;DHT22;61553;48.994;8.940;2024-03-02T04:21:05;3.00;99.90
32322;DHT22;61553;48.994;8.940;2024-03-02T04:23:30;3.00;99.90
32322;DHT22;61553;48.994;8.940;2024-03-02T04:25:56;3.00;99.90
32322;DHT22;61553;48.994;8.940;2024-03-02T04:28:22;2.90;99.90
32322;DHT22;61553;48.994;8.940;2024-03-02T04:30:47;3.00;99.90
32322;DHT22;61553;48.994;8.940;2024-03-02T04:33:13;3.00;99.90
32322;DHT22;61553;48.994;8.940;2024-03-02T04:35:39;3.00;99.90
32322;DHT22;61553;48.994;8.940;2024-03-02T04:38:04;3.00;99.90
32322;DHT22;61553;48.994;8.940;2024-03-02T04:40:30;3.00;99.90
32322;DHT22;61553;48.994;8.940;2024-03-02T04:42:56;3.10;99.90
32322;DHT22;61553;48.994;8.940;2024-03-02T04:45:21;3.00;99.90
32322;DHT22;61553;48.994;8.940;2024-03-02T04:47:47;3.00;99.90
32322;DHT22;61553;48.994;8.940;2024-03-02T04:50:12;3.20;99.90
32322;DHT22;61553;48.994;8.940;2024-03-02T04:52:38;3.00;99.90
32322;DHT22;61553;48.994;8.940;2024-03-02T04:55:04;3.00;99.90
32322;DHT22;61553;48.994;8.940;2024-03-02T04:57:55;2.90;99.90
32322;DHT22;61553;48.994;8.940;2024-03-02T05:00:21;2.90;99.90
32322;DHT22;61553;48.994;8.940;2024-03-02T05:02:47;2.80;99.90
32322;DHT22;61553;48.994;8.940;2024-03-02T05:05:13;2.80;99.90
32322;DHT22;61553;48.994;8.940;2024-03-02T05:07:40;2.80;99.90
32322;DHT22;61553;48.994;8.940;2024-03-02T05:10:08;2.80;99.90
32322;DHT22;61553;48.994;8.940;2024-03-02T05:12:34;2.80;99.90
32322;DHT22;61553;48.994;8.940;2024-03-02T05:15:13;2.90;99.90
32322;DHT22;61553;48.994;8.940;2024-03-02T05:17:40;2.90;99.90
32322;DHT22;61553;48.994;8.940;2024-03-02T05:20:09;2.90;99.90
32322;DHT22;61553;48.994;8.940;2024-03-02T05:22:35;2.90;99.90
32322;DHT22;61553;48.994;8.940;2024-03-02T05:25:04;2.90;99.90
32322;DHT22;61553;48.994;8.940;2024-03-02T05:27:30;2.90;99.90
32322;DHT22;61553;48.994;8.940;2024-03-02T05:29:56;3.20;99.90
32322;DHT22;61553;48.994;8.940;2024-03-02T05:32:23;3.10;99.90
32322;DHT22;61553;48.994;8.940;2024-03-02T05:34:48;3.20;99.90
32322;DHT22;61553;48.994;8.940;2024-03-02T05:37:16;3.30;99.90
32322;DHT22;61553;48.994;8.940;2024-03-02T05:39:42;3.20;99.90
32322;DHT22;61553;48.994;8.940;2024-03-02T05:42:09;3.20;99.90
32322;DHT22;61553;48.994;8.940;2024-03-02T05:44:35;3.20;99.90
32322;DHT22;61553;48.994;8.940;2024-03-02T05:47:01;3.20;99.90
32322;DHT22;61553;48.994;8.940;2024-03-02T05:49:26;3.20;99.90
32322;DHT22;61553;48.994;8.940;2024-03-02T05:51:52;3.30;99.90
32322;DHT22;61553;48.994;8.940;2024-03-02T05:54:18;3.30;99.90
32322;DHT22;61553;48.994;8.940;2024-03-02T05:56:43;3.30;99.90
32322;DHT22;61553;48.994;8.940;2024-03-02T05:59:09;3.20;99.90
32322;DHT22;61553;48.994;8.940;2024-03-02T06:01:42;3.20;99.90
32322;DHT22;61553;48.994;8.940;2024-03-02T06:04:09;3.30;99.90
32322;DHT22;61553;48.994;8.940;2024-03-02T06:06:34;3.20;99.90
32322;DHT22;61553;48.994;8.940;2024-03-02T06:09:01;3.30;99.90
32322;DHT22;61553;48.994;8.940;2024-03-02T06:11:28;3.30;99.90
32322;DHT22;61553;48.994;8.940;2024-03-02T06:13:53;3.30;99.90
32322;DHT22;61553;48.994;8.940;2024-03-02T06:16:19;3.30;99.90
32322;DHT22;61553;48.994;8.940;2024-03-02T06:18:44;3.30;99.90
32322;DHT22;61553;48.994;8.940;2024-03-02T06:21:10;3.30;99.90
32322;DHT22;61553;48.994;8.940;2024-03-02T06:23:36;3.30;99.90
32322;DHT22;61553;48.994;8.940;2024-03-02T06:26:02;3.40;99.90
32322;DHT22;61553;48.994;8.940;2024-03-02T06:28:28;3.40;99.90
32322;DHT22;61553;48.994;8.940;2024-03-02T06:30:54;3.50;99.90
32322;DHT22;61553;48.994;8.940;2024-03-02T06:33:19;3.60;99.90
32322;DHT22;61553;48.994;8.940;2024-03-02T06:35:45;3.60;99.90
32322;DHT22;61553;48.994;8.940;2024-03-02T06:38:10;3.70;99.90
32322;DHT22;61553;48.994;8.940;2024-03-02T06:40:36;3.80;99.90
32322;DHT22;61553;48.994;8.940;2024-03-02T06:43:03;3.90;99.90
32322;DHT22;61553;48.994;8.940;2024-03-02T06:45:29;3.90;99.90
32322;DHT22;61553;48.994;8.940;2024-03-02T06:47:56;4.00;99.90
32322;DHT22;61553;48.994;8.940;2024-03-02T06:50:22;4.00;99.90
32322;DHT22;61553;48.994;8.940;2024-03-02T06:52:47;4.10;99.90
32322;DHT22;61553;48.994;8.940;2024-03-02T06:55:13;4.10;99.90
32322;DHT22;61553;48.994;8.940;2024-03-02T06:57:38;4.20;99.90
32322;DHT22;61553;48.994;8.940;2024-03-02T07:00:04;4.30;99.90
32322;DHT22;61553;48.994;8.940;2024-03-02T07:02:31;4.30;99.90
32322;DHT22;61553;48.994;8.940;2024-03-02T07:04:57;4.30;99.90
32322;DHT22;61553;48.994;8.940;2024-03-02T07:07:23;4.30;99.90
32322;DHT22;61553;48.994;8.940;2024-03-02T07:09:48;4.40;99.90
32322;DHT22;61553;48.994;8.940;2024-03-02T07:12:14;4.40;99.90
32322;DHT22;61553;48.994;8.940;2024-03-02T07:14:40;4.50;99.90
32322;DHT22;61553;48.994;8.940;2024-03-02T07:17:24;4.50;99.90
32322;DHT22;61553;48.994;8.940;2024-03-02T07:19:51;4.60;99.90
32322;DHT22;61553;48.994;8.940;2024-03-02T07:22:16;4.70;99.90
32322;DHT22;61553;48.994;8.940;2024-03-02T07:24:44;4.80;99.90
32322;DHT22;61553;48.994;8.940;2024-03-02T07:27:12;4.90;99.90
32322;DHT22;61553;48.994;8.940;2024-03-02T07:29:38;5.00;99.90
32322;DHT22;61553;48.994;8.940;2024-03-02T07:32:04;4.90;99.90
32322;DHT22;61553;48.994;8.940;2024-03-02T07:34:30;5.00;99.90
32322;DHT22;61553;48.994;8.940;2024-03-02T07:36:56;5.10;99.90
32322;DHT22;61553;48.994;8.940;2024-03-02T07:39:22;5.20;99.90
32322;DHT22;61553;48.994;8.940;2024-03-02T07:41:47;5.20;99.90
32322;DHT22;61553;48.994;8.940;2024-03-02T07:44:14;5.30;99.90
32322;DHT22;61553;48.994;8.940;2024-03-02T07:46:43;5.30;99.90
32322;DHT22;61553;48.994;8.940;2024-03-02T07:49:09;5.40;99.90
32322;DHT22;61553;48.994;8.940;2024-03-02T07:51:35;5.50;99.90
32322;DHT22;61553;48.994;8.940;2024-03-02T07:54:01;5.60;99.90
32322;DHT22;61553;48.994;8.940;2024-03-02T07:56:27;5.60;99.90
32322;DHT22;61553;48.994;8.940;2024-03-02T07:58:54;5.70;99.90
32322;DHT22;61553;48.994;8.940;2024-03-02T08:01:20;6.00;99.90
32322;DHT22;61553;48.994;8.940;2024-03-02T08:03:45;6.30;99.90
32322;DHT22;61553;48.994;8.940;2024-03-02T08:06:16;6.70;99.90
32322;DHT22;61553;48.994;8.940;2024-03-02T08:08:41;7.00;99.90
32322;DHT22;61553;48.994;8.940;2024-03-02T08:11:07;7.60;99.90
32322;DHT22;61553;48.994;8.940;2024-03-02T08:13:33;8.60;99.90
32322;DHT22;61553;48.994;8.940;2024-03-02T08:15:58;9.50;99.90
32322;DHT22;61553;48.994;8.940;2024-03-02T08:18:24;10.80;99.90
32322;DHT22;61553;48.994;8.940;2024-03-02T08:20:50;12.30;99.90
32322;DHT22;61553;48.994;8.940;2024-03-02T08:23:16;13.60;99.90
32322;DHT22;61553;48.994;8.940;2024-03-02T08:25:42;14.80;99.90
32322;DHT22;61553;48.994;8.940;2024-03-02T08:28:07;16.30;93.40
32322;DHT22;61553;48.994;8.940;2024-03-02T08:30:33;16.70;91.30
32322;DHT22;61553;48.994;8.940;2024-03-02T08:32:59;17.30;88.50
32322;DHT22;61553;48.994;8.940;2024-03-02T08:35:26;18.40;79.60
32322;DHT22;61553;48.994;8.940;2024-03-02T08:37:51;18.70;76.50
32322;DHT22;61553;48.994;8.940;2024-03-02T08:40:17;19.40;73.80
32322;DHT22;61553;48.994;8.940;2024-03-02T08:42:43;19.30;72.00
32322;DHT22;61553;48.994;8.940;2024-03-02T08:45:09;20.10;69.30
32322;DHT22;61553;48.994;8.940;2024-03-02T08:47:35;20.60;66.50
32322;DHT22;61553;48.994;8.940;2024-03-02T08:50:00;20.20;66.70
32322;DHT22;61553;48.994;8.940;2024-03-02T08:52:26;21.00;63.10
32322;DHT22;61553;48.994;8.940;2024-03-02T08:54:52;21.50;61.10
32322;DHT22;61553;48.994;8.940;2024-03-02T08:57:18;21.50;59.80
32322;DHT22;61553;48.994;8.940;2024-03-02T08:59:44;21.20;59.80
32322;DHT22;61553;48.994;8.940;2024-03-02T09:02:10;21.40;60.40
32322;DHT22;61553;48.994;8.940;2024-03-02T09:04:36;22.40;57.60
32322;DHT22;61553;48.994;8.940;2024-03-02T09:07:01;22.60;57.10
32322;DHT22;61553;48.994;8.940;2024-03-02T09:09:27;23.20;55.00
32322;DHT22;61553;48.994;8.940;2024-03-02T09:11:53;22.40;55.80
32322;DHT22;61553;48.994;8.940;2024-03-02T09:14:20;23.00;55.60
32322;DHT22;61553;48.994;8.940;2024-03-02T09:16:46;24.00;53.20
32322;DHT22;61553;48.994;8.940;2024-03-02T09:19:12;23.00;55.30
32322;DHT22;61553;48.994;8.940;2024-03-02T09:21:38;24.00;53.00
32322;DHT22;61553;48.994;8.940;2024-03-02T09:24:03;23.80;52.10
32322;DHT22;61553;48.994;8.940;2024-03-02T09:26:29;23.90;52.50
32322;DHT22;61553;48.994;8.940;2024-03-02T09:28:55;24.00;53.30
32322;DHT22;61553;48.994;8.940;2024-03-02T09:31:21;24.20;51.00
32322;DHT22;61553;48.994;8.940;2024-03-02T09:33:46;24.00;53.30
32322;DHT22;61553;48.994;8.940;2024-03-02T09:36:19;23.70;52.60
32322;DHT22;61553;48.994;8.940;2024-03-02T09:38:45;24.40;52.60
32322;DHT22;61553;48.994;8.940;2024-03-02T09:41:11;24.40;51.10
32322;DHT22;61553;48.994;8.940;2024-03-02T09:43:37;24.40;51.20
32322;DHT22;61553;48.994;8.940;2024-03-02T09:46:03;25.30;50.60
32322;DHT22;61553;48.994;8.940;2024-03-02T09:48:29;24.80;51.50
32322;DHT22;61553;48.994;8.940;2024-03-02T09:50:54;25.20;49.70
32322;DHT22;61553;48.994;8.940;2024-03-02T09:53:20;25.90;49.20
32322;DHT22;61553;48.994;8.940;2024-03-02T09:55:47;25.90;47.80
32322;DHT22;61553;48.994;8.940;2024-03-02T09:58:13;26.10;47.60
32322;DHT22;61553;48.994;8.940;2024-03-02T10:00:39;25.50;48.30
32322;DHT22;61553;48.994;8.940;2024-03-02T10:03:04;26.40;47.40
32322;DHT22;61553;48.994;8.940;2024-03-02T10:05:31;27.20;47.20
32322;DHT22;61553;48.994;8.940;2024-03-02T10:08:03;27.40;45.90
32322;DHT22;61553;48.994;8.940;2024-03-02T10:10:49;26.50;46.80
32322;DHT22;61553;48.994;8.940;2024-03-02T10:13:15;27.00;45.60
32322;DHT22;61553;48.994;8.940;2024-03-02T10:15:41;26.20;46.60
32322;DHT22;61553;48.994;8.940;2024-03-02T10:18:11;26.20;46.90
32322;DHT22;61553;48.994;8.940;2024-03-02T10:20:37;26.50;45.10
32322;DHT22;61553;48.994;8.940;2024-03-02T10:23:14;27.00;44.60
32322;DHT22;61553;48.994;8.940;2024-03-02T10:25:40;26.90;44.60
32322;DHT22;61553;48.994;8.940;2024-03-02T10:28:06;26.90;44.30
32322;DHT22;61553;48.994;8.940;2024-03-02T10:30:35;27.30;44.20
32322;DHT22;61553;48.994;8.940;2024-03-02T10:33:02;27.10;44.10
32322;DHT22;61553;48.994;8.940;2024-03-02T10:35:28;26.50;44.90
32322;DHT22;61553;48.994;8.940;2024-03-02T10:37:54;26.00;44.40
32322;DHT22;61553;48.994;8.940;2024-03-02T10:40:23;25.50;44.90
32322;DHT22;61553;48.994;8.940;2024-03-02T10:42:50;25.30;46.10
32322;DHT22;61553;48.994;8.940;2024-03-02T10:45:17;25.10;46.40
32322;DHT22;61553;48.994;8.940;2024-03-02T10:47:46;25.10;46.80
32322;DHT22;61553;48.994;8.940;2024-03-02T10:50:12;25.20;46.70
32322;DHT22;61553;48.994;8.940;2024-03-02T10:52:38;25.20;46.50
32322;DHT22;61553;48.994;8.940;2024-03-02T10:55:08;25.00;46.70
32322;DHT22;61553;48.994;8.940;2024-03-02T10:57:43;24.70;46.40
32322;DHT22;61553;48.994;8.940;2024-03-02T11:00:14;25.10;46.90
32322;DHT22;61553;48.994;8.940;2024-03-02T11:02:50;25.90;45.70
32322;DHT22;61553;48.994;8.940;2024-03-02T11:05:22;26.20;44.90
32322;DHT22;61553;48.994;8.940;2024-03-02T11:07:53;26.10;44.10
32322;DHT22;61553;48.994;8.940;2024-03-02T11:10:22;25.20;45.90
32322;DHT22;61553;48.994;8.940;2024-03-02T11:12:59;25.10;45.10
32322;DHT22;61553;48.994;8.940;2024-03-02T11:15:27;24.50;45.80
32322;DHT22;61553;48.994;8.940;2024-03-02T11:17:54;23.20;48.10
32322;DHT22;61553;48.994;8.940;2024-03-02T11:20:20;22.60;49.60
32322;DHT22;61553;48.994;8.940;2024-03-02T11:22:46;21.90;50.20
32322;DHT22;61553;48.994;8.940;2024-03-02T11:25:25;21.10;52.40
32322;DHT22;61553;48.994;8.940;2024-03-02T11:33:01;19.70;53.50
32322;DHT22;61553;48.994;8.940;2024-03-02T11:35:33;18.90;56.70
32322;DHT22;61553;48.994;8.940;2024-03-02T11:37:59;18.50;57.50
32322;DHT22;61553;48.994;8.940;2024-03-02T11:40:25;18.30;56.50
32322;DHT22;61553;48.994;8.940;2024-03-02T11:42:51;17.90;58.00
32322;DHT22;61553;48.994;8.940;2024-03-02T11:45:17;17.50;59.00
32322;DHT22;61553;48.994;8.940;2024-03-02T11:47:50;17.00;60.20
32322;DHT22;61553;48.994;8.940;2024-03-02T11:50:28;17.00;59.90
32322;DHT22;61553;48.994;8.940;2024-03-02T11:52:54;16.80;60.40
32322;DHT22;61553;48.994;8.940;2024-03-02T11:55:21;16.60;60.80
32322;DHT22;61553;48.994;8.940;2024-03-02T11:57:49;16.60;61.60
32322;DHT22;61553;48.994;8.940;2024-03-02T12:00:19;16.50;61.50
32322;DHT22;61553;48.994;8.940;2024-03-02T12:02:47;16.50;61.70
32322;DHT22;61553;48.994;8.940;2024-03-02T12:05:24;16.50;60.90
32322;DHT22;61553;48.994;8.940;2024-03-02T12:07:58;16.40;61.30
32322;DHT22;61553;48.994;8.940;2024-03-02T12:10:25;16.50;61.90
32322;DHT22;61553;48.994;8.940;2024-03-02T12:12:58;16.60;61.00
32322;DHT22;61553;48.994;8.940;2024-03-02T12:15:28;16.60;61.40
32322;DHT22;61553;48.994;8.940;2024-03-02T12:17:55;16.60;60.70
32322;DHT22;61553;48.994;8.940;2024-03-02T12:20:22;16.60;60.10
32322;DHT22;61553;48.994;8.940;2024-03-02T12:22:53;16.40;59.50
32322;DHT22;61553;48.994;8.940;2024-03-02T12:25:20;16.40;60.20
32322;DHT22;61553;48.994;8.940;2024-03-02T12:27:50;16.40;61.60
32322;DHT22;61553;48.994;8.940;2024-03-02T12:30:19;16.50;60.00
32322;DHT22;61553;48.994;8.940;2024-03-02T12:32:46;16.50;61.20
32322;DHT22;61553;48.994;8.940;2024-03-02T12:35:12;16.50;60.50
32322;DHT22;61553;48.994;8.940;2024-03-02T12:37:48;16.50;61.50
32322;DHT22;61553;48.994;8.940;2024-03-02T12:40:16;16.50;62.30
32322;DHT22;61553;48.994;8.940;2024-03-02T12:42:44;16.50;61.10
32322;DHT22;61553;48.994;8.940;2024-03-02T12:45:10;16.60;61.10
32322;DHT22;61553;48.994;8.940;2024-03-02T12:47:37;16.50;61.90
32322;DHT22;61553;48.994;8.940;2024-03-02T12:50:04;16.50;61.40
32322;DHT22;61553;48.994;8.940;2024-03-02T12:52:30;16.40;62.10
32322;DHT22;61553;48.994;8.940;2024-03-02T12:54:58;16.30;61.00
32322;DHT22;61553;48.994;8.940;2024-03-02T12:57:28;16.30;61.70
32322;DHT22;61553;48.994;8.940;2024-03-02T13:00:07;16.30;62.10
32322;DHT22;61553;48.994;8.940;2024-03-02T13:02:39;16.40;61.90
32322;DHT22;61553;48.994;8.940;2024-03-02T13:05:06;16.30;61.90
32322;DHT22;61553;48.994;8.940;2024-03-02T13:07:36;16.40;62.10
32322;DHT22;61553;48.994;8.940;2024-03-02T13:10:02;16.30;61.30
32322;DHT22;61553;48.994;8.940;2024-03-02T13:12:30;16.40;62.00
32322;DHT22;61553;48.994;8.940;2024-03-02T13:14:58;16.40;61.20
32322;DHT22;61553;48.994;8.940;2024-03-02T13:17:24;16.50;61.80
32322;DHT22;61553;48.994;8.940;2024-03-02T13:19:57;16.50;61.30
32322;DHT22;61553;48.994;8.940;2024-03-02T13:22:24;16.40;61.50
32322;DHT22;61553;48.994;8.940;2024-03-02T13:24:51;16.60;61.60
32322;DHT22;61553;48.994;8.940;2024-03-02T13:27:17;16.60;60.70
32322;DHT22;61553;48.994;8.940;2024-03-02T13:29:46;16.60;60.50
32322;DHT22;61553;48.994;8.940;2024-03-02T13:32:15;16.60;61.40
32322;DHT22;61553;48.994;8.940;2024-03-02T13:34:41;16.60;60.90
32322;DHT22;61553;48.994;8.940;2024-03-02T13:37:07;16.60;60.90
32322;DHT22;61553;48.994;8.940;2024-03-02T13:39:33;16.70;61.20
32322;DHT22;61553;48.994;8.940;2024-03-02T13:42:06;16.80;61.00
32322;DHT22;61553;48.994;8.940;2024-03-02T13:44:34;16.90;60.60
32322;DHT22;61553;48.994;8.940;2024-03-02T13:47:00;17.00;60.30
32322;DHT22;61553;48.994;8.940;2024-03-02T13:49:26;17.00;59.00
32322;DHT22;61553;48.994;8.940;2024-03-02T13:51:59;16.90;59.70
32322;DHT22;61553;48.994;8.940;2024-03-02T13:54:26;16.80;59.90
32322;DHT22;61553;48.994;8.940;2024-03-02T13:56:52;16.80;59.60
32322;DHT22;61553;48.994;8.940;2024-03-02T13:59:18;16.90;59.90
32322;DHT22;61553;48.994;8.940;2024-03-02T14:01:44;16.90;59.70
32322;DHT22;61553;48.994;8.940;2024-03-02T14:04:10;16.90;59.60
32322;DHT22;61553;48.994;8.940;2024-03-02T14:06:35;17.10;59.40
32322;DHT22;61553;48.994;8.940;2024-03-02T14:09:01;17.10;59.60
32322;DHT22;61553;48.994;8.940;2024-03-02T14:11:28;17.10;59.60
32322;DHT22;61553;48.994;8.940;2024-03-02T14:13:54;17.00;58.70
32322;DHT22;61553;48.994;8.940;2024-03-02T14:16:20;16.90;58.40
32322;DHT22;61553;48.994;8.940;2024-03-02T14:18:46;16.90;58.70
32322;DHT22;61553;48.994;8.940;2024-03-02T14:21:11;16.90;59.10
32322;DHT22;61553;48.994;8.940;2024-03-02T14:23:37;16.80;59.10
32322;DHT22;61553;48.994;8.940;2024-03-02T14:26:03;16.70;58.90
32322;DHT22;61553;48.994;8.940;2024-03-02T14:28:29;16.70;59.40
32322;DHT22;61553;48.994;8.940;2024-03-02T14:30:54;16.70;59.60
32322;DHT22;61553;48.994;8.940;2024-03-02T14:33:20;16.60;59.70
32322;DHT22;61553;48.994;8.940;2024-03-02T14:35:46;16.50;59.20
32322;DHT22;61553;48.994;8.940;2024-03-02T14:38:12;16.70;59.60
32322;DHT22;61553;48.994;8.940;2024-03-02T14:40:38;16.70;59.30
32322;DHT22;61553;48.994;8.940;2024-03-02T14:43:04;16.90;58.90
32322;DHT22;61553;48.994;8.940;2024-03-02T14:45:29;16.90;58.70
32322;DHT22;61553;48.994;8.940;2024-03-02T14:47:56;16.90;58.90
32322;DHT22;61553;48.994;8.940;2024-03-02T14:50:25;16.90;58.30
32322;DHT22;61553;48.994;8.940;2024-03-02T14:52:51;16.90;58.50
32322;DHT22;61553;48.994;8.940;2024-03-02T14:55:17;16.90;59.10
32322;DHT22;61553;48.994;8.940;2024-03-02T14:57:42;16.90;59.30
32322;DHT22;61553;48.994;8.940;2024-03-02T15:00:09;16.80;59.10
32322;DHT22;61553;48.994;8.940;2024-03-02T15:02:37;16.90;59.80
32322;DHT22;61553;48.994;8.940;2024-03-02T15:05:03;16.90;58.30
32322;DHT22;61553;48.994;8.940;2024-03-02T15:07:29;16.90;58.80
32322;DHT22;61553;48.994;8.940;2024-03-02T15:09:55;16.90;58.20
32322;DHT22;61553;48.994;8.940;2024-03-02T15:12:20;16.90;58.50
32322;DHT22;61553;48.994;8.940;2024-03-02T15:14:47;16.80;59.00
32322;DHT22;61553;48.994;8.940;2024-03-02T15:17:14;16.70;59.30
32322;DHT22;61553;48.994;8.940;2024-03-02T15:19:42;16.60;58.50
32322;DHT22;61553;48.994;8.940;2024-03-02T15:22:08;16.40;59.30
32322;DHT22;61553;48.994;8.940;2024-03-02T15:24:34;16.20;59.70
32322;DHT22;61553;48.994;8.940;2024-03-02T15:26:59;16.00;60.00
32322;DHT22;61553;48.994;8.940;2024-03-02T15:29:25;15.90;60.50
32322;DHT22;61553;48.994;8.940;2024-03-02T15:31:54;15.70;61.10
32322;DHT22;61553;48.994;8.940;2024-03-02T15:34:20;15.50;61.10
32322;DHT22;61553;48.994;8.940;2024-03-02T15:36:46;15.40;62.00
32322;DHT22;61553;48.994;8.940;2024-03-02T15:39:13;15.20;62.20
32322;DHT22;61553;48.994;8.940;2024-03-02T15:41:38;15.20;62.60
32322;DHT22;61553;48.994;8.940;2024-03-02T15:44:06;15.00;63.90
32322;DHT22;61553;48.994;8.940;2024-03-02T15:46:33;14.80;65.00
32322;DHT22;61553;48.994;8.940;2024-03-02T15:48:59;14.70;65.30